Time;durP1;ratioP1;P1;durP2;ratioP2;P2;SDS_P1;SDS_P2;PMS_P1;PMS_P2;Temp;Humidity;BMP_temperature;BMP_pressure;BME280_temperature;BME280_humidity;BME280_pressure;Samples;Min_cycle;Max_cycle;Signal;HPM_P1;HPM_P2
2023/10/15 00:00:19;;;;;;;8.53;1.80;;;6.70;75.10;;;;;;5093842;28;20478;-91
2023/10/15 00:02:46;;;;;;;9.83;1.60;;;6.70;75.00;;;;;;5076952;28;20062;-91
2023/10/15 00:05:17;;;;;;;13.23;2.17;;;6.70;75.00;;;;;;5077133;28;20394;-92
2023/10/15 00:07:44;;;;;;;6.78;1.80;;;6.70;75.00;;;;;;5076749;28;20495;-92
2023/10/15 00:10:17;;;;;;;11.37;1.97;;;6.70;74.90;;;;;;5071795;28;20048;-91
2023/10/15 00:12:45;;;;;;;8.07;2.07;;;6.70;74.90;;;;;;5056201;28;20037;-93
2023/10/15 00:15:30;;;;;;;8.70;2.03;;;6.70;74.90;;;;;;5073619;28;20045;-91
2023/10/15 00:18:09;;;;;;;12.77;1.93;;;6.70;74.90;;;;;;5073914;28;20040;-94
2023/10/15 00:20:35;;;;;;;7.40;1.77;;;6.70;74.80;;;;;;5056565;28;20131;-92
2023/10/15 00:23:05;;;;;;;10.27;1.50;;;6.70;74.30;;;;;;5056443;28;20044;-91
2023/10/15 00:25:35;;;;;;;10.73;1.70;;;6.80;74.10;;;;;;5073930;28;20044;-91
2023/10/15 00:28:05;;;;;;;9.47;2.30;;;6.80;73.80;;;;;;5056676;28;20128;-92
2023/10/15 00:30:32;;;;;;;10.50;2.23;;;6.80;73.80;;;;;;5072972;28;20071;-90
2023/10/15 00:33:03;;;;;;;8.87;2.03;;;6.80;73.60;;;;;;5056723;28;20100;-91
2023/10/15 00:35:33;;;;;;;10.00;1.80;;;6.80;73.50;;;;;;5043621;28;20044;-92
2023/10/15 00:37:59;;;;;;;8.10;1.50;;;6.80;73.30;;;;;;5059696;28;20632;-89
2023/10/15 00:40:27;;;;;;;5.03;1.47;;;6.80;73.20;;;;;;5056292;28;20044;-91
2023/10/15 00:42:54;;;;;;;9.67;1.50;;;6.90;73.00;;;;;;5054661;28;20102;-91
2023/10/15 00:45:21;;;;;;;11.80;1.80;;;6.80;73.00;;;;;;5077168;28;20068;-91
2023/10/15 00:48:07;;;;;;;10.53;1.67;;;6.90;72.70;;;;;;5073245;28;20451;-91
2023/10/15 00:50:43;;;;;;;8.07;1.97;;;6.90;72.80;;;;;;5055860;28;20127;-91
2023/10/15 00:53:24;;;;;;;12.07;1.60;;;6.90;73.00;;;;;;5073031;28;20044;-91
2023/10/15 00:55:54;;;;;;;10.60;1.90;;;6.90;73.00;;;;;;5059275;28;20048;-92
2023/10/15 01:03:59;;;;;;;10.63;1.70;;;6.90;73.50;;;;;;5084590;28;20082;-91
2023/10/15 01:09:18;;;;;;;7.00;1.73;;;6.90;73.70;;;;;;5076954;28;20117;-90
2023/10/15 01:11:55;;;;;;;10.63;1.90;;;6.90;73.80;;;;;;5078229;28;20581;-91
2023/10/15 01:14:26;;;;;;;6.87;1.73;;;6.90;73.70;;;;;;5086872;28;20043;-89
2023/10/15 01:16:52;;;;;;;14.05;2.20;;;6.80;73.80;;;;;;5096014;28;20055;-92
2023/10/15 01:19:21;;;;;;;9.00;1.57;;;6.80;73.80;;;;;;5095506;28;20144;-92
2023/10/15 01:21:57;;;;;;;11.17;2.20;;;6.80;73.90;;;;;;5076152;28;20779;-91
2023/10/15 01:24:27;;;;;;;12.67;2.50;;;6.80;74.00;;;;;;5094031;28;20308;-93
2023/10/15 01:27:00;;;;;;;11.27;1.77;;;6.80;74.40;;;;;;5113088;28;20118;-90
2023/10/15 01:29:27;;;;;;;10.50;1.60;;;6.70;74.50;;;;;;5096777;28;20509;-91
2023/10/15 01:31:58;;;;;;;13.27;2.40;;;6.80;74.60;;;;;;5095579;28;20071;-93
2023/10/15 01:34:25;;;;;;;10.38;2.10;;;6.80;74.70;;;;;;5094572;28;20554;-91
2023/10/15 01:36:51;;;;;;;12.60;2.17;;;6.70;75.10;;;;;;5095866;28;20032;-94
2023/10/15 01:39:30;;;;;;;8.30;1.80;;;6.70;75.60;;;;;;5081232;28;20043;-92
2023/10/15 01:42:03;;;;;;;10.03;1.90;;;6.60;75.60;;;;;;5078663;28;20047;-95
2023/10/15 01:44:30;;;;;;;10.33;1.70;;;6.60;75.70;;;;;;5077553;28;20051;-95
2023/10/15 01:49:31;;;;;;;11.03;2.07;;;6.50;76.50;;;;;;5094923;28;20054;-94
2023/10/15 01:52:05;;;;;;;9.20;1.40;;;6.40;76.30;;;;;;5095024;28;20056;-95
2023/10/15 01:54:32;;;;;;;12.93;1.97;;;6.40;76.30;;;;;;5076071;28;20048;-92
2023/10/15 01:57:06;;;;;;;10.10;1.80;;;6.30;76.90;;;;;;5063217;28;20036;-94
2023/10/15 01:59:41;;;;;;;6.60;1.77;;;6.30;76.70;;;;;;5076575;28;20498;-93
2023/10/15 02:02:09;;;;;;;7.67;1.53;;;6.20;76.80;;;;;;5076068;28;20051;-93
2023/10/15 02:04:42;;;;;;;12.13;2.17;;;6.20;77.10;;;;;;5076694;28;20109;-92
2023/10/15 02:07:12;;;;;;;9.30;1.53;;;6.10;77.20;;;;;;5077044;28;20075;-92
2023/10/15 02:09:38;;;;;;;11.30;1.70;;;6.00;77.60;;;;;;5075517;28;20063;-93
2023/10/15 02:12:07;;;;;;;12.80;2.03;;;6.00;77.90;;;;;;5076679;28;20391;-92
2023/10/15 02:14:33;;;;;;;11.47;1.83;;;5.90;78.00;;;;;;5076848;28;20537;-93
2023/10/15 02:16:59;;;;;;;9.30;1.60;;;5.90;78.10;;;;;;5076401;28;20050;-93
2023/10/15 02:19:47;;;;;;;6.10;1.43;;;5.80;78.20;;;;;;5076759;28;20110;-94
2023/10/15 02:22:13;;;;;;;9.60;2.03;;;5.80;78.30;;;;;;5076218;28;20047;-93
2023/10/15 02:24:46;;;;;;;11.07;1.70;;;5.80;78.60;;;;;;5076610;28;20556;-92
2023/10/15 02:27:23;;;;;;;7.93;1.57;;;5.70;79.10;;;;;;5076791;28;20394;-92
2023/10/15 02:29:52;;;;;;;7.80;1.90;;;5.70;79.20;;;;;;5076165;28;20123;-91
2023/10/15 02:32:29;;;;;;;8.30;1.37;;;5.60;79.50;;;;;;5068900;28;20048;-92
2023/10/15 02:34:57;;;;;;;11.50;1.77;;;5.60;79.80;;;;;;5076673;28;20134;-91
2023/10/15 02:37:27;;;;;;;8.43;1.53;;;5.50;80.00;;;;;;5093164;28;20073;-91
2023/10/15 02:39:54;;;;;;;7.37;1.57;;;5.50;80.20;;;;;;5093203;28;20482;-90
2023/10/15 02:42:20;;;;;;;12.90;1.70;;;5.50;80.10;;;;;;5092957;28;20600;-90
2023/10/15 02:44:50;;;;;;;11.73;1.60;;;5.50;80.30;;;;;;5092927;28;20615;-89
2023/10/15 02:47:20;;;;;;;9.83;1.37;;;5.50;80.50;;;;;;5093433;28;20036;-90
2023/10/15 02:49:53;;;;;;;10.87;1.73;;;5.60;79.40;;;;;;5093687;28;20104;-92
2023/10/15 02:52:23;;;;;;;7.27;1.47;;;5.70;79.30;;;;;;5093955;28;20036;-88
2023/10/15 02:54:49;;;;;;;6.40;1.20;;;5.70;79.50;;;;;;5076653;28;20055;-90
2023/10/15 02:57:16;;;;;;;10.13;1.57;;;5.70;79.40;;;;;;5093501;28;20044;-89
2023/10/15 02:59:51;;;;;;;10.10;1.40;;;5.80;79.20;;;;;;5093760;28;20056;-86
2023/10/15 03:02:18;;;;;;;7.53;1.40;;;5.90;79.20;;;;;;5094068;28;20104;-91
2023/10/15 03:04:49;;;;;;;7.17;1.30;;;5.90;79.10;;;;;;5076811;28;20051;-91
2023/10/15 03:09:48;;;;;;;4.47;0.80;;;6.00;79.10;;;;;;5092620;28;20712;-92
2023/10/15 03:12:18;;;;;;;7.73;1.13;;;6.00;79.10;;;;;;5093284;28;20669;-90
2023/10/15 03:14:47;;;;;;;9.37;1.20;;;6.00;78.80;;;;;;5076477;28;20062;-93
2023/10/15 03:17:24;;;;;;;6.23;0.70;;;6.00;78.80;;;;;;5092854;28;20040;-89
2023/10/15 03:19:54;;;;;;;3.10;0.77;;;6.00;78.70;;;;;;5076447;28;20143;-93
2023/10/15 03:22:23;;;;;;;4.60;0.50;;;6.00;78.80;;;;;;5076645;28;20044;-93
2023/10/15 03:24:56;;;;;;;5.30;0.63;;;6.00;78.90;;;;;;5093799;28;20043;-94
2023/10/15 03:27:28;;;;;;;6.47;1.33;;;6.00;78.80;;;;;;5077033;28;20043;-93
2023/10/15 03:29:56;;;;;;;7.53;0.80;;;6.00;79.30;;;;;;5075979;28;20432;-89
2023/10/15 03:32:31;;;;;;;7.83;0.87;;;6.00;79.40;;;;;;5093341;28;20039;-91
2023/10/15 03:37:46;;;;;;;6.93;0.90;;;6.00;80.00;;;;;;5093579;28;20838;-88
2023/10/15 03:40:29;;;;;;;4.77;0.97;;;6.00;80.20;;;;;;5093033;28;20052;-88
2023/10/15 03:43:00;;;;;;;7.80;0.90;;;6.00;80.00;;;;;;5079249;28;20071;-89
2023/10/15 03:45:27;;;;;;;6.10;0.60;;;5.90;80.00;;;;;;5091609;28;20047;-92
2023/10/15 03:47:54;;;;;;;4.80;0.77;;;5.90;80.00;;;;;;5075815;28;20394;-90
2023/10/15 03:50:20;;;;;;;7.00;0.80;;;5.90;79.70;;;;;;5091651;28;20108;-91
2023/10/15 03:52:46;;;;;;;7.17;0.77;;;5.90;79.60;;;;;;5091970;28;20122;-92
2023/10/15 03:55:12;;;;;;;8.00;0.90;;;5.90;79.60;;;;;;5092536;28;20134;-94
2023/10/15 03:57:38;;;;;;;7.57;0.83;;;5.90;79.50;;;;;;5076456;28;20043;-94
2023/10/15 04:00:47;;;;;;;5.23;0.97;;;5.90;79.30;;;;;;5076684;28;20104;-93
2023/10/15 04:03:07;;;;;;;8.23;1.03;;;5.90;79.50;;;;;;5091621;28;20060;-92
2023/10/15 04:05:33;;;;;;;6.23;1.13;;;5.90;79.50;;;;;;5074217;28;20039;-88
2023/10/15 04:07:59;;;;;;;6.73;0.67;;;5.90;80.30;;;;;;5092780;28;20047;-92
2023/10/15 04:10:33;;;;;;;4.33;0.90;;;5.80;80.50;;;;;;5091011;28;20051;-88
2023/10/15 04:12:59;;;;;;;7.83;0.93;;;5.80;80.30;;;;;;5092288;28;20382;-89
2023/10/15 04:15:25;;;;;;;5.27;0.70;;;5.80;80.50;;;;;;5075626;28;20508;-89
2023/10/15 04:17:52;;;;;;;3.40;0.40;;;5.70;80.50;;;;;;5094722;28;20040;-88
2023/10/15 04:20:26;;;;;;;5.20;0.63;;;5.70;80.80;;;;;;5121380;27;20563;-88
2023/10/15 04:22:53;;;;;;;4.57;0.80;;;5.70;80.90;;;;;;5093862;28;20579;-89
2023/10/15 04:25:24;;;;;;;3.40;0.73;;;5.70;81.00;;;;;;5094115;28;20056;-87
2023/10/15 04:27:51;;;;;;;10.32;1.23;;;5.70;81.20;;;;;;5074489;28;20420;-88
2023/10/15 04:30:17;;;;;;;4.53;0.63;;;5.60;81.20;;;;;;5090240;28;20055;-91
2023/10/15 04:35:11;;;;;;;7.67;0.80;;;5.60;81.60;;;;;;5092278;28;20131;-88
2023/10/15 04:37:37;;;;;;;7.43;0.83;;;5.60;81.80;;;;;;5128190;27;20130;-88
2023/10/15 04:40:11;;;;;;;6.10;0.83;;;5.60;81.80;;;;;;5094472;28;20538;-88
2023/10/15 04:42:49;;;;;;;8.90;0.97;;;5.60;81.50;;;;;;5094955;28;20490;-89
2023/10/15 04:45:23;;;;;;;8.27;1.00;;;5.60;81.50;;;;;;5094238;28;20044;-86
2023/10/15 04:48:12;;;;;;;6.53;0.90;;;5.70;81.80;;;;;;5079110;28;20052;-87
2023/10/15 04:50:40;;;;;;;8.83;1.00;;;5.70;81.50;;;;;;5090479;28;20048;-89
2023/10/15 04:53:12;;;;;;;9.80;1.30;;;5.70;81.50;;;;;;5120532;27;20499;-88
2023/10/15 04:55:42;;;;;;;10.20;1.50;;;5.70;81.50;;;;;;5095944;28;20341;-88
2023/10/15 04:58:09;;;;;;;5.07;1.10;;;5.70;81.40;;;;;;5084336;28;20135;-88
2023/10/15 05:00:41;;;;;;;9.57;1.27;;;5.70;81.30;;;;;;5094729;28;20055;-89
2023/10/15 05:03:09;;;;;;;13.50;1.27;;;5.70;81.40;;;;;;5095690;28;20036;-90
2023/10/15 05:05:34;;;;;;;8.80;1.10;;;5.60;81.30;;;;;;5095373;28;20457;-88
2023/10/15 05:08:00;;;;;;;6.20;1.27;;;5.60;81.40;;;;;;5077878;28;20134;-88
2023/10/15 05:10:32;;;;;;;4.90;1.07;;;5.60;81.30;;;;;;5077602;28;20051;-89
2023/10/15 05:12:59;;;;;;;8.57;1.03;;;5.60;81.20;;;;;;5094838;28;20052;-88
2023/10/15 05:15:28;;;;;;;4.53;1.00;;;5.60;81.20;;;;;;5093499;28;20047;-88
2023/10/15 05:17:53;;;;;;;9.60;1.03;;;5.50;81.10;;;;;;5093966;28;20047;-89
2023/10/15 05:20:20;;;;;;;7.80;1.00;;;5.50;81.20;;;;;;5092395;28;20047;-89
2023/10/15 05:22:49;;;;;;;12.37;1.33;;;5.50;81.20;;;;;;5096889;28;20332;-89
2023/10/15 05:25:17;;;;;;;7.63;1.10;;;5.50;81.20;;;;;;5076175;28;20131;-90
2023/10/15 05:27:49;;;;;;;5.57;1.30;;;5.50;81.10;;;;;;5072746;28;20047;-87
2023/10/15 05:30:15;;;;;;;11.87;1.93;;;5.40;81.20;;;;;;5092485;28;20413;-90
2023/10/15 05:32:43;;;;;;;9.60;1.60;;;5.30;81.20;;;;;;5092483;28;20130;-89
2023/10/15 05:35:09;;;;;;;8.20;0.80;;;5.30;81.10;;;;;;5092642;28;20123;-91
2023/10/15 05:37:36;;;;;;;6.13;1.13;;;5.30;81.10;;;;;;5077722;28;20054;-95
2023/10/15 05:40:03;;;;;;;8.90;1.00;;;5.30;80.90;;;;;;5096467;28;20047;-90
2023/10/15 05:42:30;;;;;;;5.57;1.00;;;5.30;80.80;;;;;;5115175;27;20086;-92
2023/10/15 05:44:56;;;;;;;8.03;1.30;;;5.30;81.00;;;;;;5094440;28;20054;-89
2023/10/15 05:47:22;;;;;;;4.50;0.60;;;5.30;81.20;;;;;;5078196;28;20044;-92
2023/10/15 05:49:48;;;;;;;7.97;0.97;;;5.40;81.00;;;;;;5095560;28;20053;-90
2023/10/15 05:52:14;;;;;;;5.40;0.70;;;5.50;80.90;;;;;;5092792;28;20516;-91
2023/10/15 05:54:40;;;;;;;5.23;0.73;;;5.50;80.70;;;;;;5128222;27;20071;-92
2023/10/15 05:57:06;;;;;;;3.10;0.70;;;5.50;80.50;;;;;;5093921;28;20066;-91
2023/10/15 05:59:35;;;;;;;8.53;1.03;;;5.50;80.60;;;;;;5076677;28;20039;-93
2023/10/15 06:02:04;;;;;;;5.50;0.73;;;5.50;80.80;;;;;;5089885;28;20047;-93
2023/10/15 06:04:30;;;;;;;5.77;0.83;;;5.50;81.00;;;;;;5077587;28;20044;-91
2023/10/15 06:06:57;;;;;;;3.77;0.63;;;5.50;81.10;;;;;;5092007;28;20110;-91
2023/10/15 06:09:23;;;;;;;8.33;1.27;;;5.50;81.40;;;;;;5087440;28;20064;-89
2023/10/15 06:11:50;;;;;;;12.07;2.10;;;5.50;81.50;;;;;;5092256;28;20047;-92
2023/10/15 06:14:16;;;;;;;4.87;0.80;;;5.50;81.50;;;;;;5073744;28;20047;-93
2023/10/15 06:16:42;;;;;;;8.87;1.93;;;5.40;81.60;;;;;;5096156;28;20046;-91
2023/10/15 06:19:09;;;;;;;7.93;1.50;;;5.30;81.20;;;;;;5077273;28;20379;-93
2023/10/15 06:21:35;;;;;;;13.40;1.90;;;5.30;81.20;;;;;;5075104;28;20048;-92
2023/10/15 06:24:01;;;;;;;8.30;1.37;;;5.10;81.60;;;;;;5076582;28;20126;-95
2023/10/15 06:26:28;;;;;;;8.13;1.30;;;5.10;82.00;;;;;;5110594;28;20479;-91
2023/10/15 06:28:54;;;;;;;11.40;1.50;;;5.10;82.10;;;;;;5075082;28;20039;-94
2023/10/15 06:31:19;;;;;;;10.43;1.50;;;5.10;82.10;;;;;;5111999;28;20062;-94
2023/10/15 06:33:45;;;;;;;8.63;1.63;;;5.20;82.30;;;;;;5076625;28;20090;-95
2023/10/15 06:36:11;;;;;;;13.03;1.60;;;5.20;82.30;;;;;;5075913;28;20051;-95
2023/10/15 06:38:37;;;;;;;10.17;1.10;;;5.20;82.40;;;;;;5076011;28;20047;-93
2023/10/15 06:41:04;;;;;;;12.63;1.60;;;5.30;82.30;;;;;;5073027;28;20410;-93
2023/10/15 06:43:30;;;;;;;15.60;1.60;;;5.30;82.80;;;;;;5076445;28;20050;-94
2023/10/15 06:46:06;;;;;;;7.33;1.70;;;5.30;82.90;;;;;;5076377;28;20039;-93
2023/10/15 06:48:33;;;;;;;9.73;1.40;;;5.30;82.80;;;;;;5075261;28;20118;-92
2023/10/15 06:51:02;;;;;;;13.17;1.80;;;5.30;83.00;;;;;;5073849;28;20563;-92
2023/10/15 06:53:28;;;;;;;10.60;1.33;;;5.30;83.10;;;;;;5092955;28;20055;-94
2023/10/15 06:55:54;;;;;;;13.33;2.03;;;5.50;83.20;;;;;;5076161;28;20043;-91
2023/10/15 06:58:19;;;;;;;8.63;1.70;;;5.50;83.50;;;;;;5100360;28;20115;-90
2023/10/15 07:00:45;;;;;;;5.87;1.07;;;5.50;82.40;;;;;;5107203;28;20944;-89
2023/10/15 07:03:11;;;;;;;5.63;0.90;;;5.50;81.60;;;;;;5109586;28;20088;-88
2023/10/15 07:05:36;;;;;;;5.37;0.93;;;5.50;81.60;;;;;;5075818;28;20051;-92
2023/10/15 07:08:02;;;;;;;6.27;0.90;;;5.50;81.50;;;;;;5075955;28;20043;-92
2023/10/15 07:10:28;;;;;;;6.17;0.90;;;5.40;81.40;;;;;;5092032;28;20048;-90
2023/10/15 07:12:54;;;;;;;7.97;0.90;;;5.30;81.50;;;;;;5092887;28;20048;-92
2023/10/15 07:15:20;;;;;;;5.77;0.93;;;5.30;81.30;;;;;;5091999;28;20083;-92
2023/10/15 07:17:49;;;;;;;8.90;1.40;;;5.30;81.40;;;;;;5075498;28;20701;-90
2023/10/15 07:20:15;;;;;;;9.83;1.37;;;5.30;81.60;;;;;;5076154;28;20096;-93
2023/10/15 07:22:42;;;;;;;10.60;1.43;;;5.30;81.70;;;;;;5076420;28;20096;-90
2023/10/15 07:25:08;;;;;;;8.57;1.50;;;5.30;82.10;;;;;;5079037;28;20661;-89
2023/10/15 07:27:35;;;;;;;7.37;1.10;;;5.30;82.00;;;;;;5075006;28;20055;-91
2023/10/15 07:30:01;;;;;;;8.40;1.17;;;5.30;81.90;;;;;;5075291;28;20039;-92
2023/10/15 07:32:27;;;;;;;10.47;1.40;;;5.30;82.10;;;;;;5075154;28;20044;-92
2023/10/15 07:34:53;;;;;;;8.70;1.33;;;5.30;82.30;;;;;;5076137;28;20123;-91
2023/10/15 07:37:19;;;;;;;11.40;1.47;;;5.30;82.60;;;;;;5075377;28;20118;-90
2023/10/15 07:39:45;;;;;;;9.43;1.30;;;5.30;82.70;;;;;;5091819;28;20042;-90
2023/10/15 07:42:11;;;;;;;11.93;1.60;;;5.30;82.70;;;;;;5091930;28;20048;-91
2023/10/15 07:44:37;;;;;;;4.30;1.23;;;5.30;82.80;;;;;;5091812;28;20046;-91
2023/10/15 07:47:04;;;;;;;8.93;1.30;;;5.30;82.80;;;;;;5094951;28;20071;-89
2023/10/15 07:49:31;;;;;;;9.10;1.00;;;5.40;82.70;;;;;;5092979;28;20088;-90
2023/10/15 07:51:57;;;;;;;8.93;1.30;;;5.50;82.50;;;;;;5075698;28;20090;-90
2023/10/15 07:54:23;;;;;;;7.07;1.57;;;5.50;82.20;;;;;;5094826;28;20089;-88
2023/10/15 07:56:49;;;;;;;13.70;1.20;;;5.60;82.50;;;;;;5077457;28;20039;-88
2023/10/15 07:59:14;;;;;;;8.87;1.10;;;5.60;82.30;;;;;;5094856;28;20051;-90
2023/10/15 08:01:40;;;;;;;10.20;1.50;;;5.60;81.80;;;;;;5094307;28;20055;-91
2023/10/15 08:04:06;;;;;;;12.77;1.57;;;5.70;81.90;;;;;;5077322;28;20056;-93
2023/10/15 08:06:33;;;;;;;7.87;1.50;;;5.70;82.00;;;;;;5094978;28;20139;-88
2023/10/15 08:08:59;;;;;;;12.53;1.40;;;5.70;81.70;;;;;;5095695;28;20055;-89
2023/10/15 08:11:25;;;;;;;7.70;1.33;;;5.80;81.50;;;;;;5078140;28;20580;-88
2023/10/15 08:13:51;;;;;;;8.43;1.37;;;5.80;81.50;;;;;;5095985;28;20044;-92
2023/10/15 08:16:18;;;;;;;11.70;1.47;;;5.90;81.70;;;;;;5113583;28;20490;-89
2023/10/15 08:18:45;;;;;;;8.90;1.30;;;6.00;81.70;;;;;;5066136;28;20043;-88
2023/10/15 08:21:11;;;;;;;10.13;1.70;;;6.00;81.80;;;;;;5096447;28;20055;-88
2023/10/15 08:23:38;;;;;;;10.83;1.53;;;6.10;81.60;;;;;;5096435;28;20043;-88
2023/10/15 08:26:05;;;;;;;8.43;1.30;;;6.20;81.30;;;;;;5096395;28;20185;-88
2023/10/15 08:28:32;;;;;;;6.77;1.20;;;6.30;81.40;;;;;;5096059;28;20415;-88
2023/10/15 08:30:57;;;;;;;11.07;1.63;;;6.40;80.70;;;;;;5096464;28;20057;-89
2023/10/15 08:33:23;;;;;;;10.77;1.53;;;6.50;80.40;;;;;;5079344;28;20036;-91
2023/10/15 08:35:49;;;;;;;13.63;1.83;;;6.60;80.30;;;;;;5088698;28;20044;-89
2023/10/15 08:38:16;;;;;;;8.07;1.87;;;6.80;80.00;;;;;;5079395;28;20505;-90
2023/10/15 08:40:45;;;;;;;15.07;2.00;;;6.90;80.50;;;;;;5079385;28;20050;-89
2023/10/15 08:43:21;;;;;;;10.77;1.50;;;7.00;80.70;;;;;;5095365;28;20036;-89
2023/10/15 08:45:48;;;;;;;11.37;1.83;;;7.00;80.50;;;;;;5080134;28;20040;-90
2023/10/15 08:48:17;;;;;;;19.20;2.07;;;7.00;79.90;;;;;;5096184;28;20044;-94
2023/10/15 08:50:45;;;;;;;14.77;2.60;;;7.00;79.40;;;;;;5079981;28;20048;-92
2023/10/15 08:53:13;;;;;;;7.13;1.43;;;7.00;79.30;;;;;;5079191;28;20047;-84
2023/10/15 08:55:41;;;;;;;13.13;1.50;;;7.00;79.30;;;;;;5095084;28;20028;-90
2023/10/15 08:58:09;;;;;;;8.93;1.80;;;7.00;79.10;;;;;;5117388;27;20044;-90
2023/10/15 09:00:39;;;;;;;8.77;1.43;;;7.00;79.10;;;;;;5096862;27;20046;-89
2023/10/15 09:03:04;;;;;;;8.67;1.60;;;7.10;79.00;;;;;;5079720;28;20051;-90
2023/10/15 09:05:37;;;;;;;8.37;1.63;;;7.10;78.90;;;;;;5096076;28;20043;-88
2023/10/15 09:08:07;;;;;;;9.63;1.83;;;7.20;79.10;;;;;;5079273;28;20574;-91
2023/10/15 09:10:40;;;;;;;15.63;2.33;;;7.30;79.40;;;;;;5087235;27;20055;-88
2023/10/15 09:13:14;;;;;;;8.67;1.40;;;7.50;79.20;;;;;;5086456;27;20051;-88
2023/10/15 09:15:43;;;;;;;6.67;1.00;;;7.60;79.10;;;;;;5093916;28;20124;-85
2023/10/15 09:18:15;;;;;;;6.30;1.30;;;7.60;77.90;;;;;;5095404;28;20078;-90
2023/10/15 09:20:46;;;;;;;3.97;0.90;;;7.60;76.40;;;;;;5117424;27;20059;-89
2023/10/15 09:23:11;;;;;;;4.17;0.90;;;7.60;74.80;;;;;;5095689;28;20032;-88
2023/10/15 09:25:38;;;;;;;6.00;1.00;;;7.60;74.40;;;;;;5110553;27;20057;-87
2023/10/15 09:28:05;;;;;;;5.60;0.90;;;7.50;74.70;;;;;;5096824;27;20043;-89
2023/10/15 09:30:31;;;;;;;3.00;0.80;;;7.40;75.20;;;;;;5095132;27;20505;-87
2023/10/15 09:32:59;;;;;;;4.97;0.90;;;7.40;75.50;;;;;;5110893;27;20035;-88
2023/10/15 09:35:27;;;;;;;5.60;1.27;;;7.20;75.40;;;;;;5097534;28;20048;-87
2023/10/15 09:37:55;;;;;;;5.10;0.90;;;7.20;75.60;;;;;;5080435;28;20047;-88
2023/10/15 09:40:23;;;;;;;5.60;0.80;;;7.20;76.10;;;;;;5095542;28;20097;-88
2023/10/15 09:42:53;;;;;;;8.57;1.10;;;7.10;75.80;;;;;;5079235;28;20079;-88
2023/10/15 09:45:23;;;;;;;7.47;1.43;;;7.20;76.00;;;;;;5094741;28;20474;-88
2023/10/15 09:47:57;;;;;;;7.03;1.30;;;7.20;76.20;;;;;;5095513;28;20044;-88
2023/10/15 09:50:38;;;;;;;10.10;1.30;;;7.40;76.90;;;;;;5095411;28;20047;-88
2023/10/15 09:53:10;;;;;;;8.52;1.70;;;7.50;77.20;;;;;;5101071;27;20130;-88
2023/10/15 09:55:38;;;;;;;7.23;1.40;;;7.60;77.30;;;;;;5100534;28;20561;-87
2023/10/15 09:58:04;;;;;;;9.60;1.70;;;7.90;76.60;;;;;;5076247;28;20039;-90
2023/10/15 10:01:07;;;;;;;9.07;2.00;;;8.10;76.90;;;;;;5092586;28;20530;-88
2023/10/15 10:03:48;;;;;;;4.50;0.90;;;8.40;75.10;;;;;;5085944;28;20150;-86
2023/10/15 10:06:41;;;;;;;7.28;0.98;;;8.60;75.10;;;;;;5065475;28;20079;-87
2023/10/15 10:09:16;;;;;;;6.87;1.20;;;8.60;74.50;;;;;;5063413;28;20047;-89
2023/10/15 10:12:07;;;;;;;4.50;0.70;;;8.60;74.70;;;;;;5092248;28;20062;-88
2023/10/15 10:15:11;;;;;;;3.17;0.40;;;8.50;72.00;;;;;;5076208;28;20435;-89
2023/10/15 10:17:38;;;;;;;2.10;0.50;;;8.40;69.30;;;;;;5107791;28;20055;-89
2023/10/15 10:20:11;;;;;;;1.97;0.40;;;8.30;70.30;;;;;;5076108;28;20056;-91
2023/10/15 10:22:38;;;;;;;2.50;0.30;;;8.20;71.10;;;;;;5092867;28;20062;-88
2023/10/15 10:25:04;;;;;;;2.87;0.57;;;8.20;71.70;;;;;;5090277;28;20436;-89
2023/10/15 10:27:40;;;;;;;5.43;1.03;;;8.30;72.20;;;;;;5124909;27;20330;-88
2023/10/15 10:30:29;;;;;;;3.80;0.50;;;8.40;73.00;;;;;;5090079;28;20046;-89
2023/10/15 10:33:01;;;;;;;4.40;0.90;;;8.60;72.70;;;;;;5092704;28;20126;-89
2023/10/15 10:35:27;;;;;;;6.10;0.97;;;8.60;73.00;;;;;;5129265;27;20044;-87
2023/10/15 10:38:05;;;;;;;4.97;0.60;;;8.80;73.70;;;;;;5093160;28;20505;-90
2023/10/15 10:40:48;;;;;;;4.37;0.60;;;9.00;73.60;;;;;;5092778;28;20048;-85
2023/10/15 10:43:24;;;;;;;6.10;0.63;;;9.20;73.70;;;;;;5111311;28;20065;-90
2023/10/15 10:45:59;;;;;;;5.77;1.30;;;9.10;73.60;;;;;;5089226;28;20097;-87
2023/10/15 10:48:27;;;;;;;3.10;0.63;;;8.90;71.50;;;;;;5084229;28;20390;-88
2023/10/15 10:51:11;;;;;;;6.47;1.27;;;8.70;73.00;;;;;;5094409;28;20047;-92
2023/10/15 10:53:58;;;;;;;7.60;1.43;;;8.50;73.90;;;;;;5090230;28;20599;-90
2023/10/15 10:56:44;;;;;;;7.60;1.27;;;8.30;74.40;;;;;;5072515;28;20052;-90
2023/10/15 10:59:11;;;;;;;8.07;1.10;;;8.10;75.60;;;;;;5072408;28;20401;-92
2023/10/15 11:01:40;;;;;;;7.67;1.30;;;8.00;75.90;;;;;;5091009;28;20141;-90
2023/10/15 11:04:10;;;;;;;7.90;1.40;;;8.00;76.20;;;;;;5074202;28;20059;-90
2023/10/15 11:06:37;;;;;;;10.40;1.60;;;8.00;76.70;;;;;;5088425;28;20075;-90
2023/10/15 11:09:13;;;;;;;5.20;1.30;;;8.10;77.50;;;;;;5090670;28;20051;-90
2023/10/15 11:11:38;;;;;;;8.93;1.80;;;8.20;77.80;;;;;;5123636;27;20059;-88
2023/10/15 11:14:04;;;;;;;10.37;1.57;;;8.40;77.90;;;;;;5092856;28;20070;-86
2023/10/15 11:16:33;;;;;;;10.90;1.77;;;8.50;76.90;;;;;;5091132;28;20043;-92
2023/10/15 11:18:58;;;;;;;11.40;1.70;;;8.60;77.20;;;;;;5092029;28;20509;-87
2023/10/15 11:21:24;;;;;;;10.50;1.70;;;8.80;77.50;;;;;;5103857;28;20052;-87
2023/10/15 11:23:53;;;;;;;9.63;1.80;;;9.00;77.10;;;;;;5105153;28;20056;-87
2023/10/15 11:26:19;;;;;;;5.27;1.37;;;9.00;75.10;;;;;;5073623;28;20458;-87
2023/10/15 11:28:45;;;;;;;6.20;1.40;;;9.00;75.50;;;;;;5094481;28;20153;-89
2023/10/15 11:31:11;;;;;;;9.63;1.73;;;9.00;74.60;;;;;;5112588;28;20039;-88
2023/10/15 11:33:39;;;;;;;11.00;1.60;;;9.00;73.10;;;;;;5095960;28;20501;-89
2023/10/15 11:36:09;;;;;;;9.97;1.17;;;8.80;72.90;;;;;;5091250;28;20058;-89
2023/10/15 11:38:36;;;;;;;4.53;0.90;;;8.70;70.50;;;;;;5094745;28;20128;-89
2023/10/15 11:41:04;;;;;;;6.97;1.23;;;8.60;70.30;;;;;;5095142;28;20055;-87
2023/10/15 11:43:32;;;;;;;8.40;1.10;;;8.50;70.60;;;;;;5093748;28;20513;-88
2023/10/15 11:46:07;;;;;;;6.27;1.07;;;8.40;70.80;;;;;;5092186;28;20051;-90
2023/10/15 11:48:33;;;;;;;7.07;1.20;;;8.30;70.90;;;;;;5113294;28;20044;-89
2023/10/15 11:51:00;;;;;;;7.30;1.17;;;8.20;71.90;;;;;;5094957;28;20052;-90
2023/10/15 11:53:25;;;;;;;9.50;1.23;;;8.20;72.50;;;;;;5094155;28;20046;-90
2023/10/15 11:55:54;;;;;;;7.37;1.60;;;8.30;73.00;;;;;;5112301;28;20410;-90
2023/10/15 11:58:23;;;;;;;9.67;1.70;;;8.40;73.40;;;;;;5093251;28;20051;-90
2023/10/15 12:00:52;;;;;;;9.10;1.87;;;8.50;72.70;;;;;;5096743;28;20054;-84
2023/10/15 12:03:20;;;;;;;12.87;2.00;;;8.50;73.20;;;;;;5094751;28;20043;-91
2023/10/15 12:05:47;;;;;;;8.03;1.87;;;8.50;73.20;;;;;;5096198;28;20118;-90
2023/10/15 12:08:13;;;;;;;10.40;1.80;;;8.50;73.20;;;;;;5096627;28;20061;-89
2023/10/15 12:10:42;;;;;;;9.90;1.80;;;8.60;72.90;;;;;;5080136;28;20063;-87
2023/10/15 12:13:15;;;;;;;8.77;1.47;;;8.60;73.50;;;;;;5098071;28;20052;-87
2023/10/15 12:15:44;;;;;;;10.00;3.43;;;8.80;74.00;;;;;;5094389;28;20418;-88
2023/10/15 12:18:10;;;;;;;9.87;1.57;;;9.00;72.90;;;;;;5094644;28;20498;-87
2023/10/15 12:20:39;;;;;;;7.93;1.60;;;9.10;73.20;;;;;;5096050;28;20039;-88
2023/10/15 12:23:07;;;;;;;7.10;1.63;;;9.20;73.30;;;;;;5113507;28;20104;-86
2023/10/15 12:25:38;;;;;;;5.53;1.20;;;9.30;71.50;;;;;;5114332;28;20055;-87
2023/10/15 12:28:08;;;;;;;7.70;1.60;;;9.40;71.80;;;;;;5096649;28;20130;-87
2023/10/15 12:30:34;;;;;;;7.87;1.10;;;9.40;71.60;;;;;;5096425;28;20048;-88
2023/10/15 12:33:00;;;;;;;4.33;0.87;;;9.50;70.30;;;;;;5097880;28;20054;-87
2023/10/15 12:35:29;;;;;;;4.77;0.93;;;9.50;69.90;;;;;;5100146;27;20404;-86
2023/10/15 12:38:02;;;;;;;6.40;1.20;;;9.50;70.80;;;;;;5101902;27;20050;-87
2023/10/15 12:40:34;;;;;;;6.37;1.23;;;9.60;69.80;;;;;;5103175;27;20040;-88
2023/10/15 12:43:00;;;;;;;6.23;1.00;;;9.60;70.30;;;;;;5102336;28;20079;-86
2023/10/15 12:45:27;;;;;;;8.90;1.40;;;9.70;70.40;;;;;;5080114;28;20048;-86
2023/10/15 12:47:52;;;;;;;6.30;1.27;;;9.70;70.40;;;;;;5096833;28;20356;-89
2023/10/15 12:50:18;;;;;;;7.17;1.10;;;9.70;70.50;;;;;;5096566;28;20050;-87
2023/10/15 12:52:47;;;;;;;9.63;1.37;;;9.60;69.90;;;;;;5098100;28;20048;-87
2023/10/15 12:55:19;;;;;;;7.53;1.40;;;9.60;69.80;;;;;;5113576;28;20051;-88
2023/10/15 12:57:50;;;;;;;10.53;1.97;;;9.50;69.20;;;;;;5097259;28;20067;-88
2023/10/15 13:00:18;;;;;;;11.05;1.80;;;9.40;69.80;;;;;;5081056;28;20070;-86
2023/10/15 13:02:49;;;;;;;7.50;1.47;;;9.40;70.50;;;;;;5115292;28;20467;-87
2023/10/15 13:05:16;;;;;;;7.87;1.50;;;9.30;70.40;;;;;;5096767;28;20596;-87
2023/10/15 13:07:43;;;;;;;8.17;1.40;;;9.20;70.30;;;;;;5096922;28;20035;-90
2023/10/15 13:10:09;;;;;;;9.60;1.47;;;9.20;70.40;;;;;;5078683;28;20146;-92
2023/10/15 13:12:39;;;;;;;3.43;0.73;;;9.20;68.60;;;;;;5096206;28;20482;-86
2023/10/15 13:15:10;;;;;;;3.33;1.10;;;9.20;69.80;;;;;;5096548;28;20062;-87
2023/10/15 13:17:37;;;;;;;4.45;0.90;;;9.20;70.00;;;;;;5130076;27;20046;-86
2023/10/15 13:20:07;;;;;;;8.70;1.47;;;9.20;69.50;;;;;;5094044;28;20047;-93
2023/10/15 13:22:33;;;;;;;6.50;1.10;;;9.30;68.80;;;;;;5096473;28;20043;-85
2023/10/15 13:24:58;;;;;;;4.33;0.80;;;9.40;67.50;;;;;;5113620;28;20052;-84